sensor_id;sensor_type;location;lat;lon;timestamp;P1;durP1;ratioP1;P2;durP2;ratioP2
58657;SDS011;44428;45.630;13.786;2023-03-21T00:00:54;30.63;;;23.90;;
58657;SDS011;44428;45.630;13.786;2023-03-21T00:03:23;29.20;;;22.80;;
58657;SDS011;44428;45.630;13.786;2023-03-21T00:05:51;30.52;;;22.65;;
58657;SDS011;44428;45.630;13.786;2023-03-21T00:08:18;30.58;;;23.33;;
58657;SDS011;44428;45.630;13.786;2023-03-21T00:10:46;29.65;;;24.98;;
58657;SDS011;44428;45.630;13.786;2023-03-21T00:13:13;31.20;;;24.08;;
58657;SDS011;44428;45.630;13.786;2023-03-21T00:15:40;29.42;;;21.45;;
58657;SDS011;44428;45.630;13.786;2023-03-21T00:18:20;28.00;;;21.70;;
58657;SDS011;44428;45.630;13.786;2023-03-21T00:23:24;30.83;;;24.83;;
58657;SDS011;44428;45.630;13.786;2023-03-21T00:25:52;28.88;;;22.88;;
58657;SDS011;44428;45.630;13.786;2023-03-21T00:28:19;31.88;;;24.92;;
58657;SDS011;44428;45.630;13.786;2023-03-21T00:30:47;30.35;;;23.75;;
58657;SDS011;44428;45.630;13.786;2023-03-21T00:33:15;37.35;;;25.45;;
58657;SDS011;44428;45.630;13.786;2023-03-21T00:35:45;31.90;;;24.45;;
58657;SDS011;44428;45.630;13.786;2023-03-21T00:38:14;32.67;;;24.17;;
58657;SDS011;44428;45.630;13.786;2023-03-21T00:40:41;33.65;;;23.00;;
58657;SDS011;44428;45.630;13.786;2023-03-21T00:43:08;28.80;;;22.23;;
58657;SDS011;44428;45.630;13.786;2023-03-21T00:45:36;30.80;;;21.90;;
58657;SDS011;44428;45.630;13.786;2023-03-21T00:48:03;29.88;;;22.73;;
58657;SDS011;44428;45.630;13.786;2023-03-21T00:50:30;30.15;;;22.88;;
58657;SDS011;44428;45.630;13.786;2023-03-21T00:52:57;29.58;;;23.40;;
58657;SDS011;44428;45.630;13.786;2023-03-21T00:55:23;32.92;;;24.42;;
58657;SDS011;44428;45.630;13.786;2023-03-21T00:57:52;28.38;;;22.55;;
58657;SDS011;44428;45.630;13.786;2023-03-21T01:00:18;30.60;;;23.33;;
58657;SDS011;44428;45.630;13.786;2023-03-21T01:02:45;27.27;;;21.60;;
58657;SDS011;44428;45.630;13.786;2023-03-21T01:05:31;31.48;;;23.90;;
58657;SDS011;44428;45.630;13.786;2023-03-21T01:08:19;27.73;;;21.75;;
58657;SDS011;44428;45.630;13.786;2023-03-21T01:10:49;32.92;;;23.95;;
58657;SDS011;44428;45.630;13.786;2023-03-21T01:13:18;31.05;;;23.15;;
58657;SDS011;44428;45.630;13.786;2023-03-21T01:15:49;30.55;;;23.75;;
58657;SDS011;44428;45.630;13.786;2023-03-21T01:18:43;28.95;;;21.60;;
58657;SDS011;44428;45.630;13.786;2023-03-21T01:21:11;30.30;;;22.73;;
58657;SDS011;44428;45.630;13.786;2023-03-21T01:23:42;28.38;;;23.67;;
58657;SDS011;44428;45.630;13.786;2023-03-21T01:26:09;35.23;;;25.97;;
58657;SDS011;44428;45.630;13.786;2023-03-21T01:28:36;33.97;;;25.45;;
58657;SDS011;44428;45.630;13.786;2023-03-21T01:31:04;35.00;;;25.73;;
58657;SDS011;44428;45.630;13.786;2023-03-21T01:33:32;34.53;;;25.05;;
58657;SDS011;44428;45.630;13.786;2023-03-21T01:35:59;31.17;;;24.38;;
58657;SDS011;44428;45.630;13.786;2023-03-21T01:38:29;31.27;;;24.75;;
58657;SDS011;44428;45.630;13.786;2023-03-21T01:40:57;35.63;;;24.67;;
58657;SDS011;44428;45.630;13.786;2023-03-21T01:43:34;32.67;;;24.30;;
58657;SDS011;44428;45.630;13.786;2023-03-21T01:51:58;28.60;;;21.20;;
58657;SDS011;44428;45.630;13.786;2023-03-21T01:54:29;30.85;;;22.17;;
58657;SDS011;44428;45.630;13.786;2023-03-21T01:57:00;28.52;;;21.77;;
58657;SDS011;44428;45.630;13.786;2023-03-21T01:59:38;30.75;;;23.05;;
58657;SDS011;44428;45.630;13.786;2023-03-21T02:02:21;31.30;;;22.90;;
58657;SDS011;44428;45.630;13.786;2023-03-21T02:05:00;25.17;;;19.48;;
58657;SDS011;44428;45.630;13.786;2023-03-21T02:07:33;28.55;;;21.08;;
58657;SDS011;44428;45.630;13.786;2023-03-21T02:10:11;26.88;;;20.65;;
58657;SDS011;44428;45.630;13.786;2023-03-21T02:12:43;23.75;;;18.73;;
58657;SDS011;44428;45.630;13.786;2023-03-21T02:15:10;26.92;;;20.40;;
58657;SDS011;44428;45.630;13.786;2023-03-21T02:18:00;26.85;;;19.27;;
58657;SDS011;44428;45.630;13.786;2023-03-21T02:26:49;25.88;;;19.60;;
58657;SDS011;44428;45.630;13.786;2023-03-21T02:38:02;26.30;;;19.40;;
58657;SDS011;44428;45.630;13.786;2023-03-21T02:40:44;23.48;;;19.30;;
58657;SDS011;44428;45.630;13.786;2023-03-21T02:43:41;24.58;;;18.58;;
58657;SDS011;44428;45.630;13.786;2023-03-21T02:46:31;25.08;;;19.60;;
58657;SDS011;44428;45.630;13.786;2023-03-21T02:49:11;28.65;;;21.17;;
58657;SDS011;44428;45.630;13.786;2023-03-21T02:51:41;28.45;;;21.67;;
58657;SDS011;44428;45.630;13.786;2023-03-21T02:54:11;29.92;;;20.75;;
58657;SDS011;44428;45.630;13.786;2023-03-21T02:56:41;27.10;;;21.45;;
58657;SDS011;44428;45.630;13.786;2023-03-21T02:59:11;30.05;;;21.73;;
58657;SDS011;44428;45.630;13.786;2023-03-21T03:01:39;29.38;;;23.00;;
58657;SDS011;44428;45.630;13.786;2023-03-21T03:04:19;30.75;;;22.30;;
58657;SDS011;44428;45.630;13.786;2023-03-21T03:09:51;29.08;;;21.83;;
58657;SDS011;44428;45.630;13.786;2023-03-21T03:15:14;25.20;;;20.20;;
58657;SDS011;44428;45.630;13.786;2023-03-21T03:18:12;27.67;;;21.05;;
58657;SDS011;44428;45.630;13.786;2023-03-21T03:28:40;29.55;;;21.65;;
58657;SDS011;44428;45.630;13.786;2023-03-21T03:31:17;26.45;;;20.70;;
58657;SDS011;44428;45.630;13.786;2023-03-21T03:33:54;25.80;;;19.88;;
58657;SDS011;44428;45.630;13.786;2023-03-21T03:36:26;26.00;;;19.55;;
58657;SDS011;44428;45.630;13.786;2023-03-21T03:39:06;26.88;;;19.73;;
58657;SDS011;44428;45.630;13.786;2023-03-21T03:41:48;28.77;;;20.08;;
58657;SDS011;44428;45.630;13.786;2023-03-21T03:44:19;28.77;;;20.83;;
58657;SDS011;44428;45.630;13.786;2023-03-21T03:47:39;25.13;;;19.70;;
58657;SDS011;44428;45.630;13.786;2023-03-21T03:50:35;25.88;;;20.67;;
58657;SDS011;44428;45.630;13.786;2023-03-21T03:52:51;24.90;;;19.33;;
58657;SDS011;44428;45.630;13.786;2023-03-21T03:55:29;25.90;;;20.88;;
58657;SDS011;44428;45.630;13.786;2023-03-21T03:58:05;26.92;;;21.30;;
58657;SDS011;44428;45.630;13.786;2023-03-21T04:00:31;28.05;;;20.70;;
58657;SDS011;44428;45.630;13.786;2023-03-21T04:02:58;28.08;;;21.48;;
58657;SDS011;44428;45.630;13.786;2023-03-21T04:05:26;28.20;;;22.90;;
58657;SDS011;44428;45.630;13.786;2023-03-21T04:07:53;28.45;;;21.27;;
58657;SDS011;44428;45.630;13.786;2023-03-21T04:10:27;26.17;;;21.15;;
58657;SDS011;44428;45.630;13.786;2023-03-21T04:12:53;25.35;;;20.50;;
58657;SDS011;44428;45.630;13.786;2023-03-21T04:15:27;25.95;;;20.48;;
58657;SDS011;44428;45.630;13.786;2023-03-21T04:18:00;24.55;;;20.23;;
58657;SDS011;44428;45.630;13.786;2023-03-21T04:20:26;26.63;;;21.08;;
58657;SDS011;44428;45.630;13.786;2023-03-21T04:22:53;25.52;;;21.35;;
58657;SDS011;44428;45.630;13.786;2023-03-21T04:25:21;27.52;;;21.02;;
58657;SDS011;44428;45.630;13.786;2023-03-21T04:27:49;25.20;;;20.10;;
58657;SDS011;44428;45.630;13.786;2023-03-21T04:30:40;26.15;;;20.25;;
58657;SDS011;44428;45.630;13.786;2023-03-21T04:33:13;25.95;;;19.90;;
58657;SDS011;44428;45.630;13.786;2023-03-21T04:35:47;26.88;;;19.20;;
58657;SDS011;44428;45.630;13.786;2023-03-21T04:38:14;26.38;;;19.20;;
58657;SDS011;44428;45.630;13.786;2023-03-21T04:40:40;26.85;;;21.33;;
58657;SDS011;44428;45.630;13.786;2023-03-21T04:43:07;29.65;;;21.55;;
58657;SDS011;44428;45.630;13.786;2023-03-21T04:45:36;27.17;;;21.20;;
58657;SDS011;44428;45.630;13.786;2023-03-21T04:48:03;23.85;;;21.10;;
58657;SDS011;44428;45.630;13.786;2023-03-21T04:50:30;27.17;;;21.23;;
58657;SDS011;44428;45.630;13.786;2023-03-21T04:52:58;27.65;;;23.20;;
58657;SDS011;44428;45.630;13.786;2023-03-21T04:55:25;26.33;;;21.45;;
58657;SDS011;44428;45.630;13.786;2023-03-21T04:57:54;27.50;;;22.17;;
58657;SDS011;44428;45.630;13.786;2023-03-21T05:00:20;26.85;;;21.45;;
58657;SDS011;44428;45.630;13.786;2023-03-21T05:02:48;27.90;;;22.85;;
58657;SDS011;44428;45.630;13.786;2023-03-21T05:05:14;26.80;;;22.85;;
58657;SDS011;44428;45.630;13.786;2023-03-21T05:07:40;31.98;;;23.27;;
58657;SDS011;44428;45.630;13.786;2023-03-21T05:10:08;29.83;;;22.77;;
58657;SDS011;44428;45.630;13.786;2023-03-21T05:12:38;28.77;;;22.92;;
58657;SDS011;44428;45.630;13.786;2023-03-21T05:15:06;27.20;;;22.95;;
58657;SDS011;44428;45.630;13.786;2023-03-21T05:17:59;31.60;;;24.30;;
58657;SDS011;44428;45.630;13.786;2023-03-21T05:20:38;30.77;;;24.25;;
58657;SDS011;44428;45.630;13.786;2023-03-21T05:23:09;27.25;;;23.02;;
58657;SDS011;44428;45.630;13.786;2023-03-21T05:25:37;27.55;;;22.52;;
58657;SDS011;44428;45.630;13.786;2023-03-21T05:28:13;27.48;;;22.67;;
58657;SDS011;44428;45.630;13.786;2023-03-21T05:30:44;28.50;;;23.20;;
58657;SDS011;44428;45.630;13.786;2023-03-21T05:33:12;29.77;;;23.95;;
58657;SDS011;44428;45.630;13.786;2023-03-21T05:35:38;32.10;;;24.38;;
58657;SDS011;44428;45.630;13.786;2023-03-21T05:38:08;28.73;;;23.90;;
58657;SDS011;44428;45.630;13.786;2023-03-21T05:40:46;28.60;;;23.38;;
58657;SDS011;44428;45.630;13.786;2023-03-21T05:43:13;28.13;;;23.17;;
58657;SDS011;44428;45.630;13.786;2023-03-21T05:45:40;34.20;;;23.50;;
58657;SDS011;44428;45.630;13.786;2023-03-21T05:48:08;31.90;;;25.17;;
58657;SDS011;44428;45.630;13.786;2023-03-21T05:50:48;33.72;;;24.95;;
58657;SDS011;44428;45.630;13.786;2023-03-21T05:53:18;31.65;;;24.70;;
58657;SDS011;44428;45.630;13.786;2023-03-21T05:55:44;32.00;;;24.35;;
58657;SDS011;44428;45.630;13.786;2023-03-21T05:58:20;29.33;;;25.05;;
58657;SDS011;44428;45.630;13.786;2023-03-21T06:00:49;30.13;;;25.73;;
58657;SDS011;44428;45.630;13.786;2023-03-21T06:03:23;31.40;;;26.00;;
58657;SDS011;44428;45.630;13.786;2023-03-21T06:05:57;29.98;;;25.00;;
58657;SDS011;44428;45.630;13.786;2023-03-21T06:08:31;34.58;;;24.27;;
58657;SDS011;44428;45.630;13.786;2023-03-21T06:10:58;33.55;;;26.75;;
58657;SDS011;44428;45.630;13.786;2023-03-21T06:13:25;30.08;;;25.83;;
58657;SDS011;44428;45.630;13.786;2023-03-21T06:15:52;34.60;;;27.08;;
58657;SDS011;44428;45.630;13.786;2023-03-21T06:18:22;36.47;;;28.52;;
58657;SDS011;44428;45.630;13.786;2023-03-21T06:21:02;40.10;;;29.67;;
58657;SDS011;44428;45.630;13.786;2023-03-21T06:23:30;33.63;;;27.98;;
58657;SDS011;44428;45.630;13.786;2023-03-21T06:25:57;33.78;;;27.15;;
58657;SDS011;44428;45.630;13.786;2023-03-21T06:28:24;31.35;;;26.38;;
58657;SDS011;44428;45.630;13.786;2023-03-21T06:30:51;31.58;;;23.88;;
58657;SDS011;44428;45.630;13.786;2023-03-21T06:33:21;27.55;;;22.55;;
58657;SDS011;44428;45.630;13.786;2023-03-21T06:35:54;29.55;;;23.50;;
58657;SDS011;44428;45.630;13.786;2023-03-21T06:38:22;30.17;;;23.27;;
58657;SDS011;44428;45.630;13.786;2023-03-21T06:40:50;30.15;;;23.38;;
58657;SDS011;44428;45.630;13.786;2023-03-21T06:43:16;27.42;;;23.20;;
58657;SDS011;44428;45.630;13.786;2023-03-21T06:45:44;27.13;;;22.70;;
58657;SDS011;44428;45.630;13.786;2023-03-21T06:48:10;24.02;;;20.63;;
58657;SDS011;44428;45.630;13.786;2023-03-21T06:50:47;26.48;;;19.80;;
58657;SDS011;44428;45.630;13.786;2023-03-21T06:53:19;21.40;;;19.05;;
58657;SDS011;44428;45.630;13.786;2023-03-21T06:56:08;20.33;;;17.50;;
58657;SDS011;44428;45.630;13.786;2023-03-21T06:58:37;19.52;;;16.77;;
58657;SDS011;44428;45.630;13.786;2023-03-21T07:01:06;19.33;;;16.45;;
58657;SDS011;44428;45.630;13.786;2023-03-21T07:03:40;19.85;;;17.88;;
58657;SDS011;44428;45.630;13.786;2023-03-21T07:06:07;20.75;;;17.08;;
58657;SDS011;44428;45.630;13.786;2023-03-21T07:08:39;19.38;;;17.25;;
58657;SDS011;44428;45.630;13.786;2023-03-21T07:11:06;18.77;;;16.77;;
58657;SDS011;44428;45.630;13.786;2023-03-21T07:13:33;17.88;;;16.17;;
58657;SDS011;44428;45.630;13.786;2023-03-21T07:16:03;19.52;;;16.95;;
58657;SDS011;44428;45.630;13.786;2023-03-21T07:18:29;18.98;;;16.92;;
58657;SDS011;44428;45.630;13.786;2023-03-21T07:20:56;18.13;;;16.33;;
58657;SDS011;44428;45.630;13.786;2023-03-21T07:23:23;19.20;;;16.10;;
58657;SDS011;44428;45.630;13.786;2023-03-21T07:25:51;18.48;;;16.67;;
58657;SDS011;44428;45.630;13.786;2023-03-21T07:28:18;18.83;;;16.85;;
58657;SDS011;44428;45.630;13.786;2023-03-21T07:30:50;19.52;;;17.23;;
58657;SDS011;44428;45.630;13.786;2023-03-21T07:33:19;21.08;;;18.50;;
58657;SDS011;44428;45.630;13.786;2023-03-21T07:35:45;21.63;;;19.35;;
58657;SDS011;44428;45.630;13.786;2023-03-21T07:38:12;20.88;;;18.67;;
58657;SDS011;44428;45.630;13.786;2023-03-21T07:40:41;21.10;;;18.85;;
58657;SDS011;44428;45.630;13.786;2023-03-21T07:43:08;19.45;;;17.55;;
58657;SDS011;44428;45.630;13.786;2023-03-21T07:45:35;20.73;;;18.38;;
58657;SDS011;44428;45.630;13.786;2023-03-21T07:48:05;20.58;;;18.38;;
58657;SDS011;44428;45.630;13.786;2023-03-21T07:50:33;22.85;;;20.30;;
58657;SDS011;44428;45.630;13.786;2023-03-21T07:53:00;20.92;;;18.67;;
58657;SDS011;44428;45.630;13.786;2023-03-21T07:55:26;22.30;;;18.95;;
58657;SDS011;44428;45.630;13.786;2023-03-21T07:57:53;19.95;;;17.95;;
58657;SDS011;44428;45.630;13.786;2023-03-21T08:00:20;19.38;;;17.17;;
58657;SDS011;44428;45.630;13.786;2023-03-21T08:02:50;21.00;;;18.95;;
58657;SDS011;44428;45.630;13.786;2023-03-21T08:05:20;22.73;;;20.63;;
58657;SDS011;44428;45.630;13.786;2023-03-21T08:07:47;22.10;;;19.73;;
58657;SDS011;44428;45.630;13.786;2023-03-21T08:10:14;24.52;;;22.02;;
58657;SDS011;44428;45.630;13.786;2023-03-21T08:12:42;24.63;;;21.38;;
58657;SDS011;44428;45.630;13.786;2023-03-21T08:15:10;22.92;;;20.50;;
58657;SDS011;44428;45.630;13.786;2023-03-21T08:17:37;23.27;;;19.23;;
58657;SDS011;44428;45.630;13.786;2023-03-21T08:20:05;23.17;;;18.92;;
58657;SDS011;44428;45.630;13.786;2023-03-21T08:22:33;24.42;;;17.98;;
58657;SDS011;44428;45.630;13.786;2023-03-21T08:25:02;21.75;;;17.83;;
58657;SDS011;44428;45.630;13.786;2023-03-21T08:27:33;19.52;;;17.67;;
58657;SDS011;44428;45.630;13.786;2023-03-21T08:30:00;19.38;;;17.27;;
58657;SDS011;44428;45.630;13.786;2023-03-21T08:32:26;18.23;;;16.40;;
58657;SDS011;44428;45.630;13.786;2023-03-21T08:34:59;19.67;;;17.58;;
58657;SDS011;44428;45.630;13.786;2023-03-21T08:37:27;19.98;;;17.83;;
58657;SDS011;44428;45.630;13.786;2023-03-21T08:39:53;18.58;;;16.70;;
58657;SDS011;44428;45.630;13.786;2023-03-21T08:42:20;18.27;;;16.48;;
58657;SDS011;44428;45.630;13.786;2023-03-21T08:44:47;19.02;;;15.70;;
58657;SDS011;44428;45.630;13.786;2023-03-21T08:47:14;19.33;;;17.42;;
58657;SDS011;44428;45.630;13.786;2023-03-21T08:49:40;18.70;;;16.90;;
58657;SDS011;44428;45.630;13.786;2023-03-21T08:52:10;19.20;;;17.17;;
58657;SDS011;44428;45.630;13.786;2023-03-21T08:54:37;19.05;;;17.05;;
58657;SDS011;44428;45.630;13.786;2023-03-21T08:57:04;18.48;;;16.65;;
58657;SDS011;44428;45.630;13.786;2023-03-21T09:01:56;18.23;;;16.47;;
58657;SDS011;44428;45.630;13.786;2023-03-21T09:04:22;18.40;;;16.70;;
58657;SDS011;44428;45.630;13.786;2023-03-21T09:06:50;18.27;;;16.48;;
58657;SDS011;44428;45.630;13.786;2023-03-21T09:09:17;16.65;;;15.00;;
58657;SDS011;44428;45.630;13.786;2023-03-21T09:11:43;16.83;;;15.10;;
58657;SDS011;44428;45.630;13.786;2023-03-21T09:14:10;16.95;;;15.20;;
58657;SDS011;44428;45.630;13.786;2023-03-21T09:16:36;15.57;;;13.93;;
58657;SDS011;44428;45.630;13.786;2023-03-21T09:19:02;15.88;;;14.27;;
58657;SDS011;44428;45.630;13.786;2023-03-21T09:21:29;14.30;;;12.73;;
58657;SDS011;44428;45.630;13.786;2023-03-21T09:23:55;14.13;;;12.77;;
58657;SDS011;44428;45.630;13.786;2023-03-21T09:26:24;14.55;;;13.13;;
58657;SDS011;44428;45.630;13.786;2023-03-21T09:28:53;14.65;;;13.10;;
58657;SDS011;44428;45.630;13.786;2023-03-21T09:31:20;15.02;;;13.40;;
58657;SDS011;44428;45.630;13.786;2023-03-21T09:33:48;15.98;;;14.43;;
58657;SDS011;44428;45.630;13.786;2023-03-21T09:36:16;17.00;;;14.15;;
58657;SDS011;44428;45.630;13.786;2023-03-21T09:38:46;16.27;;;14.68;;
58657;SDS011;44428;45.630;13.786;2023-03-21T09:44:15;16.40;;;13.07;;
58657;SDS011;44428;45.630;13.786;2023-03-21T09:47:02;21.35;;;15.13;;
58657;SDS011;44428;45.630;13.786;2023-03-21T09:49:51;15.65;;;14.15;;
58657;SDS011;44428;45.630;13.786;2023-03-21T09:52:21;15.98;;;14.32;;
58657;SDS011;44428;45.630;13.786;2023-03-21T09:54:56;16.60;;;14.88;;
58657;SDS011;44428;45.630;13.786;2023-03-21T09:57:37;15.50;;;14.02;;
58657;SDS011;44428;45.630;13.786;2023-03-21T10:00:14;15.88;;;14.27;;
58657;SDS011;44428;45.630;13.786;2023-03-21T10:02:52;15.75;;;13.95;;
58657;SDS011;44428;45.630;13.786;2023-03-21T10:05:25;15.48;;;13.88;;
58657;SDS011;44428;45.630;13.786;2023-03-21T10:08:13;16.63;;;14.60;;
58657;SDS011;44428;45.630;13.786;2023-03-21T10:10:48;15.10;;;13.63;;
58657;SDS011;44428;45.630;13.786;2023-03-21T10:13:39;15.68;;;14.25;;
58657;SDS011;44428;45.630;13.786;2023-03-21T10:16:09;14.52;;;12.88;;
58657;SDS011;44428;45.630;13.786;2023-03-21T10:18:40;17.70;;;14.18;;
58657;SDS011;44428;45.630;13.786;2023-03-21T10:21:09;15.40;;;12.93;;
58657;SDS011;44428;45.630;13.786;2023-03-21T10:23:41;13.90;;;11.93;;
58657;SDS011;44428;45.630;13.786;2023-03-21T10:26:07;13.35;;;12.07;;
58657;SDS011;44428;45.630;13.786;2023-03-21T10:28:35;16.73;;;12.82;;
58657;SDS011;44428;45.630;13.786;2023-03-21T10:31:07;14.65;;;12.35;;
58657;SDS011;44428;45.630;13.786;2023-03-21T10:33:39;14.73;;;12.45;;
58657;SDS011;44428;45.630;13.786;2023-03-21T10:38:59;15.35;;;12.27;;
58657;SDS011;44428;45.630;13.786;2023-03-21T10:41:29;13.93;;;12.52;;
58657;SDS011;44428;45.630;13.786;2023-03-21T10:44:09;14.57;;;12.45;;
58657;SDS011;44428;45.630;13.786;2023-03-21T10:46:48;14.80;;;11.02;;
58657;SDS011;44428;45.630;13.786;2023-03-21T10:49:19;12.80;;;11.35;;
58657;SDS011;44428;45.630;13.786;2023-03-21T10:51:51;13.63;;;10.80;;
58657;SDS011;44428;45.630;13.786;2023-03-21T10:54:21;14.20;;;10.90;;
58657;SDS011;44428;45.630;13.786;2023-03-21T10:59:25;12.05;;;10.85;;
58657;SDS011;44428;45.630;13.786;2023-03-21T11:01:54;14.32;;;11.23;;
58657;SDS011;44428;45.630;13.786;2023-03-21T11:04:25;13.02;;;11.13;;
58657;SDS011;44428;45.630;13.786;2023-03-21T11:06:57;12.82;;;11.20;;
58657;SDS011;44428;45.630;13.786;2023-03-21T11:09:42;14.40;;;11.73;;
58657;SDS011;44428;45.630;13.786;2023-03-21T11:12:29;15.95;;;12.88;;
58657;SDS011;44428;45.630;13.786;2023-03-21T11:17:55;14.80;;;13.27;;
58657;SDS011;44428;45.630;13.786;2023-03-21T11:20:22;14.63;;;12.65;;
58657;SDS011;44428;45.630;13.786;2023-03-21T11:22:49;15.18;;;12.45;;
58657;SDS011;44428;45.630;13.786;2023-03-21T11:28:24;19.10;;;13.90;;
58657;SDS011;44428;45.630;13.786;2023-03-21T11:30:59;13.77;;;12.40;;
58657;SDS011;44428;45.630;13.786;2023-03-21T11:33:32;17.25;;;12.05;;
58657;SDS011;44428;45.630;13.786;2023-03-21T11:38:31;13.20;;;11.88;;
58657;SDS011;44428;45.630;13.786;2023-03-21T11:41:01;15.02;;;11.93;;
58657;SDS011;44428;45.630;13.786;2023-03-21T11:43:30;14.40;;;12.82;;
58657;SDS011;44428;45.630;13.786;2023-03-21T11:46:23;16.83;;;12.75;;
58657;SDS011;44428;45.630;13.786;2023-03-21T11:48:53;13.57;;;12.27;;
58657;SDS011;44428;45.630;13.786;2023-03-21T11:53:59;13.25;;;11.90;;
58657;SDS011;44428;45.630;13.786;2023-03-21T11:56:28;13.98;;;12.52;;
58657;SDS011;44428;45.630;13.786;2023-03-21T11:59:17;13.73;;;12.15;;
58657;SDS011;44428;45.630;13.786;2023-03-21T12:04:53;13.23;;;11.93;;
58657;SDS011;44428;45.630;13.786;2023-03-21T12:07:32;13.93;;;12.68;;
58657;SDS011;44428;45.630;13.786;2023-03-21T12:18:27;17.55;;;15.70;;
58657;SDS011;44428;45.630;13.786;2023-03-21T12:21:10;17.73;;;14.73;;
58657;SDS011;44428;45.630;13.786;2023-03-21T12:26:59;16.13;;;14.48;;
58657;SDS011;44428;45.630;13.786;2023-03-21T12:38:59;16.65;;;15.05;;
58657;SDS011;44428;45.630;13.786;2023-03-21T12:44:15;19.10;;;14.90;;
58657;SDS011;44428;45.630;13.786;2023-03-21T12:52:41;16.58;;;13.75;;
58657;SDS011;44428;45.630;13.786;2023-03-21T12:58:24;16.08;;;14.48;;
58657;SDS011;44428;45.630;13.786;2023-03-21T13:00:54;18.30;;;14.50;;
58657;SDS011;44428;45.630;13.786;2023-03-21T13:03:30;19.08;;;17.23;;
58657;SDS011;44428;45.630;13.786;2023-03-21T13:06:01;20.00;;;18.00;;
58657;SDS011;44428;45.630;13.786;2023-03-21T13:09:04;18.33;;;16.52;;
58657;SDS011;44428;45.630;13.786;2023-03-21T13:11:42;20.98;;;17.83;;
58657;SDS011;44428;45.630;13.786;2023-03-21T13:14:17;20.08;;;17.15;;
58657;SDS011;44428;45.630;13.786;2023-03-21T13:17:28;18.38;;;16.58;;
58657;SDS011;44428;45.630;13.786;2023-03-21T13:20:21;19.67;;;17.67;;
58657;SDS011;44428;45.630;13.786;2023-03-21T13:23:00;20.10;;;16.75;;
58657;SDS011;44428;45.630;13.786;2023-03-21T13:25:27;17.67;;;15.88;;
58657;SDS011;44428;45.630;13.786;2023-03-21T13:28:01;18.77;;;16.85;;
58657;SDS011;44428;45.630;13.786;2023-03-21T13:30:30;18.88;;;16.75;;
58657;SDS011;44428;45.630;13.786;2023-03-21T13:33:08;20.48;;;18.10;;
58657;SDS011;44428;45.630;13.786;2023-03-21T13:35:39;20.70;;;18.50;;
58657;SDS011;44428;45.630;13.786;2023-03-21T13:44:04;19.27;;;17.30;;
58657;SDS011;44428;45.630;13.786;2023-03-21T13:46:45;20.75;;;18.52;;
58657;SDS011;44428;45.630;13.786;2023-03-21T13:49:26;18.42;;;16.48;;
58657;SDS011;44428;45.630;13.786;2023-03-21T13:51:54;17.95;;;16.05;;
58657;SDS011;44428;45.630;13.786;2023-03-21T13:54:27;19.30;;;17.23;;
58657;SDS011;44428;45.630;13.786;2023-03-21T13:57:03;19.33;;;17.00;;
58657;SDS011;44428;45.630;13.786;2023-03-21T14:04:40;20.30;;;16.95;;
58657;SDS011;44428;45.630;13.786;2023-03-21T14:07:11;20.67;;;18.48;;
58657;SDS011;44428;45.630;13.786;2023-03-21T14:09:47;20.77;;;18.58;;
58657;SDS011;44428;45.630;13.786;2023-03-21T14:12:17;21.40;;;18.90;;
58657;SDS011;44428;45.630;13.786;2023-03-21T14:14:52;20.10;;;17.98;;
58657;SDS011;44428;45.630;13.786;2023-03-21T14:17:24;19.38;;;17.40;;
58657;SDS011;44428;45.630;13.786;2023-03-21T14:19:54;19.77;;;17.65;;
58657;SDS011;44428;45.630;13.786;2023-03-21T14:22:23;21.42;;;18.02;;
58657;SDS011;44428;45.630;13.786;2023-03-21T14:24:54;21.63;;;19.00;;
58657;SDS011;44428;45.630;13.786;2023-03-21T14:27:21;22.50;;;20.10;;
58657;SDS011;44428;45.630;13.786;2023-03-21T14:29:47;21.25;;;18.15;;
58657;SDS011;44428;45.630;13.786;2023-03-21T14:32:17;29.77;;;20.33;;
58657;SDS011;44428;45.630;13.786;2023-03-21T14:34:47;20.52;;;18.38;;
58657;SDS011;44428;45.630;13.786;2023-03-21T14:39:58;23.65;;;21.27;;
58657;SDS011;44428;45.630;13.786;2023-03-21T14:42:27;25.73;;;23.02;;
58657;SDS011;44428;45.630;13.786;2023-03-21T14:44:59;28.85;;;24.33;;
58657;SDS011;44428;45.630;13.786;2023-03-21T14:47:27;27.17;;;24.10;;
58657;SDS011;44428;45.630;13.786;2023-03-21T14:49:56;25.92;;;22.75;;
58657;SDS011;44428;45.630;13.786;2023-03-21T14:52:30;27.52;;;24.50;;
58657;SDS011;44428;45.630;13.786;2023-03-21T14:54:58;27.77;;;22.63;;
58657;SDS011;44428;45.630;13.786;2023-03-21T14:57:27;27.88;;;23.80;;
58657;SDS011;44428;45.630;13.786;2023-03-21T14:59:57;27.05;;;24.13;;
58657;SDS011;44428;45.630;13.786;2023-03-21T15:02:30;27.30;;;24.40;;
58657;SDS011;44428;45.630;13.786;2023-03-21T15:05:10;25.30;;;22.70;;
58657;SDS011;44428;45.630;13.786;2023-03-21T15:07:44;27.83;;;24.88;;
58657;SDS011;44428;45.630;13.786;2023-03-21T15:10:18;27.23;;;24.33;;
58657;SDS011;44428;45.630;13.786;2023-03-21T15:12:50;27.40;;;23.40;;
58657;SDS011;44428;45.630;13.786;2023-03-21T15:15:18;25.77;;;22.80;;
58657;SDS011;44428;45.630;13.786;2023-03-21T15:17:45;24.13;;;21.58;;
58657;SDS011;44428;45.630;13.786;2023-03-21T15:20:13;24.60;;;21.98;;
58657;SDS011;44428;45.630;13.786;2023-03-21T15:22:41;23.63;;;20.88;;
58657;SDS011;44428;45.630;13.786;2023-03-21T15:25:18;24.75;;;22.08;;
58657;SDS011;44428;45.630;13.786;2023-03-21T15:27:53;24.85;;;21.60;;
58657;SDS011;44428;45.630;13.786;2023-03-21T15:30:25;24.58;;;21.35;;
58657;SDS011;44428;45.630;13.786;2023-03-21T15:32:56;24.70;;;22.00;;
58657;SDS011;44428;45.630;13.786;2023-03-21T15:35:32;22.10;;;19.80;;
58657;SDS011;44428;45.630;13.786;2023-03-21T15:38:03;23.42;;;20.83;;
58657;SDS011;44428;45.630;13.786;2023-03-21T15:40:30;28.05;;;22.92;;
58657;SDS011;44428;45.630;13.786;2023-03-21T15:43:05;25.95;;;23.10;;
58657;SDS011;44428;45.630;13.786;2023-03-21T15:45:50;27.55;;;23.00;;
58657;SDS011;44428;45.630;13.786;2023-03-21T15:48:25;26.38;;;21.73;;
58657;SDS011;44428;45.630;13.786;2023-03-21T15:53:34;26.38;;;23.58;;
58657;SDS011;44428;45.630;13.786;2023-03-21T15:56:02;26.02;;;23.23;;
58657;SDS011;44428;45.630;13.786;2023-03-21T15:58:35;31.58;;;23.77;;
58657;SDS011;44428;45.630;13.786;2023-03-21T16:01:19;25.95;;;23.25;;
58657;SDS011;44428;45.630;13.786;2023-03-21T16:03:47;28.63;;;23.50;;
58657;SDS011;44428;45.630;13.786;2023-03-21T16:06:21;27.80;;;24.38;;
58657;SDS011;44428;45.630;13.786;2023-03-21T16:11:40;28.77;;;25.65;;
58657;SDS011;44428;45.630;13.786;2023-03-21T16:14:07;30.45;;;25.08;;
58657;SDS011;44428;45.630;13.786;2023-03-21T16:16:34;31.45;;;25.15;;
58657;SDS011;44428;45.630;13.786;2023-03-21T16:19:01;27.25;;;24.33;;
58657;SDS011;44428;45.630;13.786;2023-03-21T16:21:29;29.65;;;24.55;;
58657;SDS011;44428;45.630;13.786;2023-03-21T16:23:56;26.48;;;22.88;;
58657;SDS011;44428;45.630;13.786;2023-03-21T16:26:26;33.47;;;23.42;;
58657;SDS011;44428;45.630;13.786;2023-03-21T16:28:55;35.22;;;27.08;;